Time;durP1;ratioP1;P1;durP2;ratioP2;P2;SDS_P1;SDS_P2;PMS_P1;PMS_P2;Temp;Humidity;BMP_temperature;BMP_pressure;BME280_temperature;BME280_humidity;BME280_pressure;Samples;Min_cycle;Max_cycle;Signal;HPM_P1;HPM_P2
2022/06/09 00:00:56;;;;;;;58.70;2.93;;;;;;;;;;5093240;28;20451;-74
2022/06/09 00:03:25;;;;;;;65.33;3.20;;;;;;;;;;5092871;28;20475;-74
2022/06/09 00:05:53;;;;;;;59.47;3.30;;;;;;;;;;5093084;28;20454;-75
2022/06/09 00:08:20;;;;;;;59.00;3.10;;;;;;;;;;5092426;28;20486;-74
2022/06/09 00:10:51;;;;;;;62.03;3.50;;;;;;;;;;5093113;28;20457;-74
2022/06/09 00:13:19;;;;;;;59.20;3.40;;;;;;;;;;5092876;28;20474;-74
2022/06/09 00:15:47;;;;;;;58.63;3.00;;;;;;;;;;5092789;28;20453;-74
2022/06/09 00:18:15;;;;;;;60.37;2.93;;;;;;;;;;5092346;28;20466;-74
2022/06/09 00:20:42;;;;;;;58.80;2.90;;;;;;;;;;5092942;28;20452;-74
2022/06/09 00:23:10;;;;;;;59.87;3.30;;;;;;;;;;5092958;28;20481;-74
2022/06/09 00:25:37;;;;;;;61.00;3.73;;;;;;;;;;5092705;28;20451;-74
2022/06/09 00:28:05;;;;;;;59.17;3.37;;;;;;;;;;5091861;28;20455;-74
2022/06/09 00:30:33;;;;;;;71.80;4.00;;;;;;;;;;5092536;28;20443;-74
2022/06/09 00:33:00;;;;;;;59.00;3.27;;;;;;;;;;5092592;28;20472;-74
2022/06/09 00:35:27;;;;;;;62.90;3.70;;;;;;;;;;5092530;28;20447;-74
2022/06/09 00:37:55;;;;;;;58.80;3.30;;;;;;;;;;5091622;28;20459;-74
2022/06/09 00:40:22;;;;;;;60.37;3.40;;;;;;;;;;5092569;28;20452;-74
2022/06/09 00:42:49;;;;;;;59.87;3.63;;;;;;;;;;5092313;28;20883;-74
2022/06/09 00:45:28;;;;;;;58.57;2.80;;;;;;;;;;5092566;28;20872;-74
2022/06/09 00:47:58;;;;;;;59.40;3.00;;;;;;;;;;5091815;28;20444;-74
2022/06/09 00:50:28;;;;;;;59.10;3.40;;;;;;;;;;5092340;28;20858;-74
2022/06/09 00:52:56;;;;;;;59.20;3.20;;;;;;;;;;5092210;28;20552;-74
2022/06/09 00:55:24;;;;;;;59.17;3.40;;;;;;;;;;5092191;28;20443;-74
2022/06/09 00:57:53;;;;;;;58.80;2.90;;;;;;;;;;5091806;28;20452;-74
2022/06/09 01:00:22;;;;;;;59.00;3.40;;;;;;;;;;5092325;28;20460;-74
2022/06/09 01:02:50;;;;;;;58.60;2.90;;;;;;;;;;5091946;28;20972;-74
2022/06/09 01:05:20;;;;;;;59.60;3.10;;;;;;;;;;5092155;28;20455;-74
2022/06/09 01:07:49;;;;;;;58.93;2.90;;;;;;;;;;5091786;28;20932;-74
2022/06/09 01:10:16;;;;;;;58.93;3.33;;;;;;;;;;5091793;28;21011;-74
2022/06/09 01:12:45;;;;;;;59.87;3.50;;;;;;;;;;5091807;28;21056;-74
2022/06/09 01:15:14;;;;;;;58.67;3.10;;;;;;;;;;5091954;28;20545;-74
2022/06/09 01:17:46;;;;;;;58.57;2.70;;;;;;;;;;5091340;28;20451;-74
2022/06/09 01:20:20;;;;;;;58.67;2.70;;;;;;;;;;5091989;28;20454;-74
2022/06/09 01:23:03;;;;;;;58.50;2.80;;;;;;;;;;5091584;28;20477;-74
2022/06/09 01:25:54;;;;;;;58.57;2.80;;;;;;;;;;5091848;28;20451;-74
2022/06/09 01:28:36;;;;;;;58.50;2.80;;;;;;;;;;5034252;28;20907;-74
2022/06/09 01:31:09;;;;;;;58.37;2.90;;;;;;;;;;5091617;28;20459;-74
2022/06/09 01:33:42;;;;;;;58.90;2.93;;;;;;;;;;5088424;28;20458;-74
2022/06/09 01:36:17;;;;;;;58.40;2.60;;;;;;;;;;5091733;28;20550;-74
2022/06/09 01:38:47;;;;;;;58.60;2.70;;;;;;;;;;5090910;28;20455;-74
2022/06/09 01:41:15;;;;;;;58.47;2.53;;;;;;;;;;5091752;28;20449;-74
2022/06/09 01:43:42;;;;;;;58.47;2.70;;;;;;;;;;5091714;28;20458;-73
2022/06/09 01:46:12;;;;;;;58.80;3.00;;;;;;;;;;5091676;28;20896;-74
2022/06/09 01:48:40;;;;;;;58.37;2.50;;;;;;;;;;5090775;28;20453;-74
2022/06/09 01:51:10;;;;;;;58.57;2.80;;;;;;;;;;5091739;28;20450;-74
2022/06/09 01:53:39;;;;;;;59.47;2.80;;;;;;;;;;5091940;28;20446;-74
2022/06/09 01:56:09;;;;;;;58.13;2.60;;;;;;;;;;5091537;28;20460;-74
2022/06/09 01:58:39;;;;;;;59.30;2.70;;;;;;;;;;5091467;28;20458;-74
2022/06/09 02:01:08;;;;;;;58.73;2.83;;;;;;;;;;5091695;28;20815;-74
2022/06/09 02:03:46;;;;;;;58.90;2.60;;;;;;;;;;5093646;28;20443;-74
2022/06/09 02:06:13;;;;;;;58.50;2.73;;;;;;;;;;5095322;28;20935;-72
2022/06/09 02:08:41;;;;;;;58.77;2.60;;;;;;;;;;5094665;28;20889;-74
2022/06/09 02:11:09;;;;;;;58.77;2.80;;;;;;;;;;5095291;28;20909;-74
2022/06/09 02:13:39;;;;;;;58.43;2.50;;;;;;;;;;5095143;28;20935;-75
2022/06/09 02:16:07;;;;;;;58.60;2.63;;;;;;;;;;5095405;28;20454;-74
2022/06/09 02:18:39;;;;;;;58.57;2.60;;;;;;;;;;5094595;28;20447;-75
2022/06/09 02:21:08;;;;;;;58.67;2.60;;;;;;;;;;5095137;28;20537;-74
2022/06/09 02:23:36;;;;;;;60.27;4.37;;;;;;;;;;5095056;28;20446;-74
2022/06/09 02:26:04;;;;;;;58.67;2.80;;;;;;;;;;5094985;28;20462;-74
2022/06/09 02:28:31;;;;;;;58.83;2.80;;;;;;;;;;5094695;28;20481;-74
2022/06/09 02:30:58;;;;;;;59.07;2.83;;;;;;;;;;5094767;28;20575;-74
2022/06/09 02:33:25;;;;;;;58.67;2.70;;;;;;;;;;5094967;28;20451;-74
2022/06/09 02:35:54;;;;;;;59.67;3.30;;;;;;;;;;5094912;28;20451;-74
2022/06/09 02:38:22;;;;;;;58.80;2.70;;;;;;;;;;5093956;28;20456;-74
2022/06/09 02:40:49;;;;;;;58.53;2.80;;;;;;;;;;5094671;28;20440;-74
2022/06/09 02:43:16;;;;;;;60.20;2.90;;;;;;;;;;5094780;28;20471;-74
2022/06/09 02:45:44;;;;;;;59.20;2.80;;;;;;;;;;5094859;28;20447;-74
2022/06/09 02:48:12;;;;;;;59.20;2.90;;;;;;;;;;5093835;28;20537;-74
2022/06/09 02:50:39;;;;;;;60.80;2.70;;;;;;;;;;5094399;28;20489;-74
2022/06/09 02:53:08;;;;;;;58.67;2.80;;;;;;;;;;5094378;28;20846;-74
2022/06/09 02:55:35;;;;;;;58.93;2.83;;;;;;;;;;5094382;28;20448;-75
2022/06/09 02:58:03;;;;;;;58.43;2.70;;;;;;;;;;5093898;28;20443;-74
2022/06/09 03:00:30;;;;;;;58.83;2.63;;;;;;;;;;5094413;28;20451;-74
2022/06/09 03:02:58;;;;;;;59.57;2.80;;;;;;;;;;5094280;28;20546;-74
2022/06/09 03:05:26;;;;;;;59.73;3.60;;;;;;;;;;5094669;28;20535;-74
2022/06/09 03:07:53;;;;;;;58.57;2.63;;;;;;;;;;5093973;28;20444;-74
2022/06/09 03:10:22;;;;;;;58.77;2.70;;;;;;;;;;5094036;28;20486;-74
2022/06/09 03:12:49;;;;;;;58.77;2.63;;;;;;;;;;5093945;28;20549;-74
2022/06/09 03:15:17;;;;;;;58.57;2.67;;;;;;;;;;5093036;28;20523;-74
2022/06/09 03:17:45;;;;;;;58.63;2.87;;;;;;;;;;5093459;28;20446;-74
2022/06/09 03:20:18;;;;;;;58.80;2.83;;;;;;;;;;5093958;28;20537;-74
2022/06/09 03:22:46;;;;;;;58.97;3.07;;;;;;;;;;5093848;28;20982;-74
2022/06/09 03:25:13;;;;;;;59.83;3.30;;;;;;;;;;5094038;28;20827;-74
2022/06/09 03:27:41;;;;;;;60.17;3.10;;;;;;;;;;5093304;28;20528;-74
2022/06/09 03:30:09;;;;;;;58.77;2.90;;;;;;;;;;5093817;28;20870;-74
2022/06/09 03:32:37;;;;;;;58.83;2.90;;;;;;;;;;5093616;28;20552;-74
2022/06/09 03:35:04;;;;;;;58.87;2.90;;;;;;;;;;5093515;28;20454;-74
2022/06/09 03:37:31;;;;;;;58.37;2.70;;;;;;;;;;5093082;28;20445;-74
2022/06/09 03:39:58;;;;;;;59.00;3.20;;;;;;;;;;5093771;28;20448;-74
2022/06/09 03:42:25;;;;;;;59.50;3.13;;;;;;;;;;5093393;28;20486;-74
2022/06/09 03:44:54;;;;;;;59.17;3.53;;;;;;;;;;5093457;28;20548;-74
2022/06/09 03:47:22;;;;;;;58.97;3.30;;;;;;;;;;5092693;28;20474;-74
2022/06/09 03:49:49;;;;;;;59.17;3.37;;;;;;;;;;5093442;28;20491;-74
2022/06/09 03:52:16;;;;;;;59.10;3.00;;;;;;;;;;5093347;28;20474;-74
2022/06/09 03:54:43;;;;;;;58.97;3.00;;;;;;;;;;5093413;28;20504;-74
2022/06/09 03:57:11;;;;;;;58.87;2.97;;;;;;;;;;5092505;28;20459;-74
2022/06/09 03:59:38;;;;;;;61.93;3.50;;;;;;;;;;5093180;28;20534;-74
2022/06/09 04:02:06;;;;;;;58.73;3.20;;;;;;;;;;5093452;28;20470;-74
2022/06/09 04:04:33;;;;;;;59.23;3.27;;;;;;;;;;5093156;28;20455;-74
2022/06/09 04:07:01;;;;;;;58.67;3.20;;;;;;;;;;5093173;28;20529;-74
2022/06/09 04:09:28;;;;;;;59.30;3.20;;;;;;;;;;5092370;28;20549;-74
2022/06/09 04:11:55;;;;;;;58.90;3.20;;;;;;;;;;5092933;28;20549;-74
2022/06/09 04:14:22;;;;;;;59.60;3.37;;;;;;;;;;5092827;28;20452;-74
2022/06/09 04:16:49;;;;;;;58.87;3.20;;;;;;;;;;5092783;28;20463;-74
2022/06/09 04:19:18;;;;;;;59.33;3.37;;;;;;;;;;5092359;28;20454;-74
2022/06/09 04:21:46;;;;;;;59.10;3.27;;;;;;;;;;5092698;28;20472;-74
2022/06/09 04:24:13;;;;;;;58.50;2.97;;;;;;;;;;5092785;28;20894;-74
2022/06/09 04:26:41;;;;;;;60.70;3.00;;;;;;;;;;5092330;28;20546;-74
2022/06/09 04:29:10;;;;;;;59.57;3.73;;;;;;;;;;5091805;28;20550;-74
2022/06/09 04:31:37;;;;;;;58.77;3.07;;;;;;;;;;5092803;28;20589;-74
2022/06/09 04:34:04;;;;;;;60.27;3.83;;;;;;;;;;5092633;28;20452;-74
2022/06/09 04:36:33;;;;;;;59.10;3.10;;;;;;;;;;5092703;28;20982;-74
2022/06/09 04:39:00;;;;;;;58.97;3.40;;;;;;;;;;5091753;28;20566;-74
2022/06/09 04:41:27;;;;;;;58.90;3.27;;;;;;;;;;5092354;28;20550;-74
2022/06/09 04:43:57;;;;;;;59.20;3.17;;;;;;;;;;5092314;28;20953;-74
2022/06/09 04:46:24;;;;;;;59.50;3.13;;;;;;;;;;5092318;28;20955;-74
2022/06/09 04:48:52;;;;;;;59.30;3.30;;;;;;;;;;5091819;28;20447;-74
2022/06/09 04:51:20;;;;;;;59.00;3.00;;;;;;;;;;5092184;28;20529;-74
2022/06/09 04:53:49;;;;;;;60.33;3.50;;;;;;;;;;5092259;28;20538;-74
2022/06/09 04:56:17;;;;;;;58.60;3.00;;;;;;;;;;5092148;28;20447;-74
2022/06/09 04:58:45;;;;;;;58.67;3.10;;;;;;;;;;5091766;28;20477;-74
2022/06/09 05:01:17;;;;;;;59.77;3.30;;;;;;;;;;5092192;28;20451;-74
2022/06/09 05:03:44;;;;;;;59.00;3.50;;;;;;;;;;5092174;28;20443;-74
2022/06/09 05:06:11;;;;;;;65.50;3.67;;;;;;;;;;5092040;28;20457;-73
2022/06/09 05:08:40;;;;;;;59.10;3.13;;;;;;;;;;5091223;28;20539;-74
2022/06/09 05:11:08;;;;;;;58.47;3.10;;;;;;;;;;5092075;28;20515;-73
2022/06/09 05:13:37;;;;;;;59.17;3.30;;;;;;;;;;5092073;28;20453;-74
2022/06/09 05:16:06;;;;;;;58.97;3.10;;;;;;;;;;5092077;28;20808;-74
2022/06/09 05:18:33;;;;;;;58.40;2.80;;;;;;;;;;5091300;28;20446;-74
2022/06/09 05:21:01;;;;;;;59.07;3.10;;;;;;;;;;5092003;28;20450;-74
2022/06/09 05:23:29;;;;;;;59.37;3.20;;;;;;;;;;5092178;28;20475;-74
2022/06/09 05:25:57;;;;;;;58.97;3.20;;;;;;;;;;5092008;28;20551;-74
2022/06/09 05:28:27;;;;;;;58.67;2.80;;;;;;;;;;5091080;28;20956;-74
2022/06/09 05:30:54;;;;;;;62.33;2.97;;;;;;;;;;5091874;28;20484;-74
2022/06/09 05:33:22;;;;;;;58.47;2.90;;;;;;;;;;5091559;28;21059;-74
2022/06/09 05:35:49;;;;;;;59.00;3.03;;;;;;;;;;5091637;28;20451;-73
2022/06/09 05:46:33;;;;;;;58.80;2.80;;;;;;;;;;5095780;28;20800;-74
2022/06/09 05:49:00;;;;;;;58.80;2.90;;;;;;;;;;5095200;28;20454;-74
2022/06/09 05:51:28;;;;;;;58.77;2.80;;;;;;;;;;5095522;28;21041;-74
2022/06/09 05:53:55;;;;;;;59.57;3.30;;;;;;;;;;5095676;28;20535;-75
2022/06/09 05:56:23;;;;;;;58.67;3.10;;;;;;;;;;5095619;28;20484;-74
2022/06/09 05:58:51;;;;;;;60.47;3.17;;;;;;;;;;5094680;28;20461;-74
2022/06/09 06:01:18;;;;;;;61.77;4.00;;;;;;;;;;5095534;28;20442;-72
2022/06/09 06:03:46;;;;;;;61.40;3.20;;;;;;;;;;5095518;28;20479;-72
2022/06/09 06:08:57;;;;;;;59.23;3.47;;;;;;;;;;5094713;28;21062;-72
2022/06/09 06:11:25;;;;;;;60.40;4.10;;;;;;;;;;5095081;28;20497;-74
2022/06/09 06:13:54;;;;;;;59.27;3.27;;;;;;;;;;5095355;28;20454;-74
2022/06/09 06:16:21;;;;;;;60.30;3.40;;;;;;;;;;5095257;28;20855;-73
2022/06/09 06:18:49;;;;;;;59.80;3.13;;;;;;;;;;5094624;28;20453;-72
2022/06/09 06:21:16;;;;;;;66.60;3.97;;;;;;;;;;5095069;28;20546;-72
2022/06/09 06:23:44;;;;;;;59.23;3.37;;;;;;;;;;5094870;28;20455;-72
2022/06/09 06:26:11;;;;;;;59.37;3.20;;;;;;;;;;5095029;28;20946;-72
2022/06/09 06:28:39;;;;;;;60.27;3.13;;;;;;;;;;5094487;28;20440;-72
2022/06/09 06:31:08;;;;;;;69.90;3.57;;;;;;;;;;5094869;28;20560;-73
2022/06/09 06:33:35;;;;;;;59.87;3.83;;;;;;;;;;5094889;28;20488;-73
2022/06/09 06:36:02;;;;;;;59.20;3.80;;;;;;;;;;5094920;28;20459;-72
2022/06/09 06:38:29;;;;;;;60.43;3.60;;;;;;;;;;5093874;28;20825;-73
2022/06/09 06:40:57;;;;;;;59.00;3.23;;;;;;;;;;5094764;28;21024;-73
2022/06/09 06:43:24;;;;;;;59.80;3.80;;;;;;;;;;5094706;28;21059;-73
2022/06/09 06:45:52;;;;;;;60.80;3.73;;;;;;;;;;5094626;28;20450;-73
2022/06/09 06:48:20;;;;;;;59.50;3.60;;;;;;;;;;5093889;28;20456;-73
2022/06/09 06:50:48;;;;;;;60.27;3.47;;;;;;;;;;5094480;28;20480;-74
2022/06/09 06:53:15;;;;;;;59.27;3.20;;;;;;;;;;5094637;28;20576;-73
2022/06/09 06:55:42;;;;;;;59.20;3.50;;;;;;;;;;5094651;28;20540;-74
2022/06/09 06:58:10;;;;;;;59.33;3.23;;;;;;;;;;5093692;28;20457;-73
2022/06/09 07:00:38;;;;;;;61.77;3.23;;;;;;;;;;5094442;28;20527;-74
2022/06/09 07:03:06;;;;;;;58.67;2.90;;;;;;;;;;5094282;28;20475;-73
2022/06/09 07:05:36;;;;;;;59.07;3.03;;;;;;;;;;5094484;28;20461;-74
2022/06/09 07:08:04;;;;;;;58.57;3.20;;;;;;;;;;5093855;28;20545;-73
2022/06/09 07:10:32;;;;;;;62.90;3.07;;;;;;;;;;5094225;28;20480;-73
2022/06/09 07:12:59;;;;;;;58.27;2.50;;;;;;;;;;5094219;28;20492;-74
2022/06/09 07:15:27;;;;;;;58.87;3.30;;;;;;;;;;5094136;28;20447;-73
2022/06/09 07:17:54;;;;;;;60.60;2.83;;;;;;;;;;5093261;28;20458;-73
2022/06/09 07:20:21;;;;;;;61.00;3.70;;;;;;;;;;5094203;28;20449;-73
2022/06/09 07:22:49;;;;;;;58.60;2.90;;;;;;;;;;5094015;28;20504;-73
2022/06/09 07:25:19;;;;;;;58.87;2.70;;;;;;;;;;5093966;28;20476;-73
2022/06/09 07:27:46;;;;;;;60.23;2.70;;;;;;;;;;5093300;28;20459;-73
2022/06/09 07:30:14;;;;;;;62.30;2.90;;;;;;;;;;5093742;28;20821;-74
2022/06/09 07:32:41;;;;;;;61.90;3.17;;;;;;;;;;5093589;28;20569;-74
2022/06/09 07:35:10;;;;;;;63.10;3.40;;;;;;;;;;5093925;28;20472;-73
2022/06/09 07:37:37;;;;;;;58.97;2.70;;;;;;;;;;5092845;28;20442;-73
2022/06/09 07:40:06;;;;;;;59.97;2.70;;;;;;;;;;5093873;28;20446;-73
2022/06/09 07:42:33;;;;;;;58.57;2.73;;;;;;;;;;5093501;28;20515;-74
2022/06/09 07:45:01;;;;;;;61.00;2.90;;;;;;;;;;5093340;28;20456;-73
2022/06/09 07:47:28;;;;;;;58.30;2.43;;;;;;;;;;5092768;28;20453;-74
2022/06/09 07:49:55;;;;;;;59.00;2.83;;;;;;;;;;5093709;28;20537;-73
2022/06/09 07:52:22;;;;;;;58.50;2.67;;;;;;;;;;5093412;28;20572;-73
2022/06/09 07:54:49;;;;;;;60.43;3.13;;;;;;;;;;5093338;28;20531;-73
2022/06/09 07:57:18;;;;;;;60.53;2.80;;;;;;;;;;5092537;28;20456;-74
2022/06/09 07:59:45;;;;;;;59.27;2.90;;;;;;;;;;5093105;28;20450;-73
2022/06/09 08:02:13;;;;;;;59.43;2.87;;;;;;;;;;5092780;28;20468;-73
2022/06/09 08:04:40;;;;;;;58.17;2.37;;;;;;;;;;5093120;28;20449;-74
2022/06/09 08:07:07;;;;;;;58.57;2.40;;;;;;;;;;5092801;28;20442;-74
2022/06/09 08:09:34;;;;;;;64.93;3.03;;;;;;;;;;5092657;28;20545;-74
2022/06/09 08:12:02;;;;;;;59.60;2.90;;;;;;;;;;5092847;28;20521;-74
2022/06/09 08:14:30;;;;;;;58.27;2.90;;;;;;;;;;5092796;28;21036;-74
2022/06/09 08:16:57;;;;;;;58.27;2.50;;;;;;;;;;5093107;28;20536;-74
2022/06/09 08:19:25;;;;;;;60.70;3.30;;;;;;;;;;5092319;28;20537;-73
2022/06/09 08:21:52;;;;;;;58.90;2.50;;;;;;;;;;5092693;28;20528;-73
2022/06/09 08:24:19;;;;;;;59.50;3.20;;;;;;;;;;5092814;28;20446;-73
2022/06/09 08:26:47;;;;;;;58.70;2.63;;;;;;;;;;5092672;28;21028;-73
2022/06/09 08:29:15;;;;;;;58.83;2.60;;;;;;;;;;5092203;28;20457;-73
2022/06/09 08:31:43;;;;;;;58.60;2.60;;;;;;;;;;5092664;28;20893;-73
2022/06/09 08:34:11;;;;;;;59.87;3.10;;;;;;;;;;5092522;28;20445;-74
2022/06/09 08:36:38;;;;;;;58.77;2.77;;;;;;;;;;5092660;28;20459;-73
2022/06/09 08:39:05;;;;;;;60.10;3.17;;;;;;;;;;5091736;28;20549;-73
2022/06/09 08:41:39;;;;;;;59.40;2.90;;;;;;;;;;5092345;28;21015;-73
2022/06/09 08:44:13;;;;;;;58.40;2.30;;;;;;;;;;5092564;28;20533;-73
2022/06/09 08:46:44;;;;;;;58.40;2.70;;;;;;;;;;5092648;28;20533;-73
2022/06/09 08:49:32;;;;;;;59.17;2.90;;;;;;;;;;5091615;28;20452;-73
2022/06/09 08:52:03;;;;;;;59.17;3.20;;;;;;;;;;5087147;28;20490;-73
2022/06/09 08:54:33;;;;;;;61.13;2.90;;;;;;;;;;5092511;28;20462;-73
2022/06/09 08:57:02;;;;;;;58.90;2.60;;;;;;;;;;5092347;28;20537;-73
2022/06/09 08:59:36;;;;;;;59.00;2.90;;;;;;;;;;5091467;28;20537;-73
2022/06/09 09:02:13;;;;;;;60.50;2.63;;;;;;;;;;5092070;28;20520;-73
2022/06/09 09:04:42;;;;;;;60.50;2.70;;;;;;;;;;5092242;28;20482;-73
2022/06/09 09:07:15;;;;;;;61.23;2.93;;;;;;;;;;5091466;28;20523;-73
2022/06/09 09:09:42;;;;;;;58.07;2.70;;;;;;;;;;5092090;28;20965;-71
2022/06/09 09:12:14;;;;;;;59.93;3.07;;;;;;;;;;5091048;28;20494;-71
2022/06/09 09:14:42;;;;;;;58.70;2.70;;;;;;;;;;5092068;28;20534;-71
2022/06/09 09:17:13;;;;;;;58.40;2.30;;;;;;;;;;5091795;28;20671;-73
2022/06/09 09:19:45;;;;;;;58.37;2.50;;;;;;;;;;5092119;28;20817;-72
2022/06/09 09:22:18;;;;;;;58.60;2.70;;;;;;;;;;5091867;28;20543;-73
2022/06/09 09:24:48;;;;;;;58.53;2.53;;;;;;;;;;5092037;28;20450;-73
2022/06/09 09:27:23;;;;;;;59.13;3.50;;;;;;;;;;5091127;28;20446;-72
2022/06/09 09:29:56;;;;;;;58.40;2.60;;;;;;;;;;5092059;28;20451;-73
2022/06/09 09:32:25;;;;;;;59.20;2.80;;;;;;;;;;5091902;28;20575;-73
2022/06/09 09:34:53;;;;;;;58.27;2.70;;;;;;;;;;5091877;28;20969;-73
2022/06/09 09:37:24;;;;;;;59.17;2.67;;;;;;;;;;5090959;28;20454;-73
2022/06/09 09:39:55;;;;;;;58.00;2.37;;;;;;;;;;5091986;28;20450;-73
2022/06/09 09:42:24;;;;;;;59.60;2.60;;;;;;;;;;5091797;28;20498;-72
2022/06/09 09:45:04;;;;;;;60.03;2.80;;;;;;;;;;5091783;28;20537;-73
2022/06/09 09:47:32;;;;;;;60.70;3.00;;;;;;;;;;5091021;28;20463;-72
2022/06/09 09:50:02;;;;;;;59.10;2.60;;;;;;;;;;5091724;28;20445;-74
2022/06/09 09:52:37;;;;;;;61.10;2.97;;;;;;;;;;5091639;28;20543;-73
2022/06/09 09:55:04;;;;;;;60.70;2.77;;;;;;;;;;5091843;28;20450;-73
2022/06/09 09:57:33;;;;;;;58.00;2.67;;;;;;;;;;5091061;28;20488;-73
2022/06/09 10:00:00;;;;;;;58.80;2.80;;;;;;;;;;5091693;28;20484;-73
2022/06/09 10:11:53;;;;;;;58.60;2.63;;;;;;;;;;5091365;28;20424;-73
2022/06/09 10:13:50;;;;;;;59.07;2.83;;;;;;;;;;5091207;28;20467;-73
2022/06/09 10:16:17;;;;;;;58.37;2.10;;;;;;;;;;5091646;28;20531;-73
2022/06/09 10:18:45;;;;;;;59.10;2.27;;;;;;;;;;5090781;28;20453;-73
2022/06/09 10:21:14;;;;;;;58.70;2.40;;;;;;;;;;5091215;28;20492;-73
2022/06/09 10:23:45;;;;;;;58.40;2.30;;;;;;;;;;5092429;28;20829;-73
2022/06/09 10:26:14;;;;;;;62.17;3.30;;;;;;;;;;5095506;28;20542;-73
2022/06/09 10:28:44;;;;;;;58.37;2.40;;;;;;;;;;5094419;28;20961;-71
2022/06/09 10:31:15;;;;;;;57.70;2.20;;;;;;;;;;5094941;28;20943;-71
2022/06/09 10:33:47;;;;;;;58.17;2.10;;;;;;;;;;5094870;28;20519;-71
2022/06/09 10:36:16;;;;;;;59.27;2.40;;;;;;;;;;5095216;28;20453;-71
2022/06/09 10:38:47;;;;;;;58.70;2.17;;;;;;;;;;5093981;28;20462;-73
2022/06/09 10:41:16;;;;;;;59.57;2.50;;;;;;;;;;5094746;28;20457;-73
2022/06/09 10:43:47;;;;;;;58.23;2.03;;;;;;;;;;5094772;28;20474;-74
2022/06/09 10:46:21;;;;;;;59.43;2.87;;;;;;;;;;5094520;28;21073;-74
2022/06/09 10:57:18;;;;;;;58.20;2.10;;;;;;;;;;5093884;28;20430;-71
2022/06/09 10:59:47;;;;;;;58.20;2.00;;;;;;;;;;5094645;28;20484;-72
2022/06/09 11:02:17;;;;;;;59.07;2.13;;;;;;;;;;5094410;28;20532;-72
2022/06/09 11:04:44;;;;;;;59.07;2.43;;;;;;;;;;5094360;28;20537;-71
2022/06/09 11:07:25;;;;;;;58.40;1.90;;;;;;;;;;5093553;28;21049;-71
2022/06/09 11:09:59;;;;;;;57.60;2.00;;;;;;;;;;5094259;28;20442;-71
2022/06/09 11:12:33;;;;;;;59.20;2.00;;;;;;;;;;5093977;28;20492;-73
2022/06/09 11:15:09;;;;;;;57.97;2.20;;;;;;;;;;5094353;28;20545;-73
2022/06/09 11:17:44;;;;;;;57.93;1.90;;;;;;;;;;5093671;28;20442;-72
2022/06/09 11:20:21;;;;;;;57.57;1.90;;;;;;;;;;5094268;28;20453;-73
2022/06/09 11:22:53;;;;;;;58.20;1.90;;;;;;;;;;5093917;28;20466;-71
2022/06/09 11:25:24;;;;;;;58.10;2.23;;;;;;;;;;5093955;28;20951;-72
2022/06/09 11:27:57;;;;;;;57.87;1.80;;;;;;;;;;5093085;28;20951;-71
2022/06/09 11:30:28;;;;;;;58.60;2.10;;;;;;;;;;5094162;28;20444;-71
2022/06/09 11:33:04;;;;;;;58.17;2.03;;;;;;;;;;5093586;28;20865;-71
2022/06/09 11:35:40;;;;;;;58.50;1.93;;;;;;;;;;5092754;28;20450;-71
2022/06/09 11:38:20;;;;;;;57.67;2.00;;;;;;;;;;5092942;28;20481;-71
2022/06/09 11:40:52;;;;;;;59.27;2.30;;;;;;;;;;5093779;28;21010;-71
2022/06/09 11:43:23;;;;;;;59.93;2.20;;;;;;;;;;5093425;28;20465;-71
2022/06/09 11:45:52;;;;;;;57.37;1.90;;;;;;;;;;5093684;28;20450;-72
2022/06/09 11:48:23;;;;;;;57.87;2.00;;;;;;;;;;5092919;28;20446;-72
2022/06/09 11:50:50;;;;;;;57.77;2.03;;;;;;;;;;5093501;28;20542;-72
2022/06/09 11:53:19;;;;;;;57.50;1.80;;;;;;;;;;5093359;28;20486;-72
2022/06/09 11:56:00;;;;;;;58.70;2.10;;;;;;;;;;5093610;28;20438;-72
2022/06/09 11:58:45;;;;;;;58.50;2.13;;;;;;;;;;5092672;28;20450;-71
2022/06/09 12:01:27;;;;;;;58.30;1.97;;;;;;;;;;5093097;28;20446;-72
2022/06/09 12:04:03;;;;;;;57.43;2.00;;;;;;;;;;5091026;28;20537;-72
2022/06/09 12:06:36;;;;;;;57.80;1.80;;;;;;;;;;5093267;28;20478;-72
2022/06/09 12:09:07;;;;;;;58.00;1.90;;;;;;;;;;5092431;28;20443;-72
2022/06/09 12:11:52;;;;;;;57.80;2.00;;;;;;;;;;5093034;28;20554;-72
2022/06/09 12:14:23;;;;;;;58.77;2.30;;;;;;;;;;5093145;28;20875;-72
2022/06/09 12:17:08;;;;;;;58.87;2.00;;;;;;;;;;5093191;28;20545;-72
2022/06/09 12:19:37;;;;;;;57.67;2.00;;;;;;;;;;5092982;28;20457;-72
2022/06/09 12:22:23;;;;;;;57.77;2.10;;;;;;;;;;5092573;28;20565;-72
2022/06/09 12:25:05;;;;;;;57.47;2.10;;;;;;;;;;5092997;28;20541;-72
2022/06/09 12:27:43;;;;;;;57.80;2.27;;;;;;;;;;5092162;28;20450;-72
2022/06/09 12:30:26;;;;;;;58.63;2.70;;;;;;;;;;5092884;28;20886;-73
2022/06/09 12:32:56;;;;;;;57.13;2.10;;;;;;;;;;5092397;28;20526;-73
2022/06/09 12:35:27;;;;;;;58.27;2.10;;;;;;;;;;5092943;28;20442;-72
2022/06/09 12:37:57;;;;;;;57.97;2.10;;;;;;;;;;5091876;28;20540;-72
2022/06/09 12:40:27;;;;;;;57.30;1.80;;;;;;;;;;5092626;28;20481;-71
2022/06/09 12:42:56;;;;;;;57.60;1.90;;;;;;;;;;5092288;28;20545;-72
2022/06/09 12:45:26;;;;;;;58.53;2.20;;;;;;;;;;5092633;28;20453;-72
2022/06/09 12:47:54;;;;;;;57.97;2.30;;;;;;;;;;5091614;28;20450;-73
2022/06/09 12:50:23;;;;;;;57.67;2.00;;;;;;;;;;5092308;28;20533;-72
2022/06/09 12:52:54;;;;;;;59.50;2.10;;;;;;;;;;5092109;28;20478;-72
2022/06/09 12:55:23;;;;;;;57.70;1.80;;;;;;;;;;5092235;28;20446;-72
2022/06/09 12:57:51;;;;;;;57.27;1.80;;;;;;;;;;5091545;28;20538;-72
2022/06/09 13:00:21;;;;;;;57.80;1.80;;;;;;;;;;5092325;28;20450;-72
2022/06/09 13:02:50;;;;;;;60.37;2.00;;;;;;;;;;5092229;28;20462;-72
2022/06/09 13:05:20;;;;;;;58.20;2.00;;;;;;;;;;5092048;28;20478;-72
2022/06/09 13:07:52;;;;;;;58.30;2.20;;;;;;;;;;5091309;28;20443;-72
2022/06/09 13:10:21;;;;;;;57.70;2.00;;;;;;;;;;5092152;28;20478;-72
2022/06/09 13:12:51;;;;;;;59.80;2.23;;;;;;;;;;5091981;28;20570;-72
2022/06/09 13:15:21;;;;;;;58.70;2.20;;;;;;;;;;5092233;28;20446;-72
2022/06/09 13:17:50;;;;;;;58.10;1.93;;;;;;;;;;5091372;28;20451;-72
2022/06/09 13:20:18;;;;;;;57.80;2.30;;;;;;;;;;5092078;28;20453;-72
2022/06/09 13:22:46;;;;;;;57.70;1.90;;;;;;;;;;5091934;28;20469;-72
2022/06/09 13:25:14;;;;;;;58.00;2.00;;;;;;;;;;5092147;28;20451;-72
2022/06/09 13:27:45;;;;;;;57.87;1.93;;;;;;;;;;5091163;28;20457;-72
2022/06/09 13:30:30;;;;;;;57.40;1.77;;;;;;;;;;5092025;28;20453;-72
2022/06/09 13:32:58;;;;;;;57.73;1.87;;;;;;;;;;5091562;28;20488;-72
2022/06/09 13:35:38;;;;;;;58.67;1.90;;;;;;;;;;5092004;28;20829;-72
2022/06/09 13:38:16;;;;;;;59.70;2.00;;;;;;;;;;5091194;28;20919;-72
2022/06/09 13:40:45;;;;;;;58.83;2.27;;;;;;;;;;5091974;28;20450;-72
2022/06/09 13:43:18;;;;;;;58.00;2.07;;;;;;;;;;5091575;28;20900;-72
2022/06/09 13:45:50;;;;;;;57.77;2.13;;;;;;;;;;5091982;28;20442;-72
2022/06/09 13:48:21;;;;;;;60.77;2.27;;;;;;;;;;5091333;28;20446;-72
2022/06/09 13:50:49;;;;;;;58.57;2.10;;;;;;;;;;5091756;28;20541;-72
2022/06/09 13:53:22;;;;;;;57.67;2.00;;;;;;;;;;5091436;28;20984;-72
2022/06/09 13:55:49;;;;;;;59.07;2.20;;;;;;;;;;5091922;28;20812;-72
2022/06/09 13:58:16;;;;;;;58.30;2.03;;;;;;;;;;5091137;28;20946;-72
2022/06/09 14:00:46;;;;;;;57.90;2.43;;;;;;;;;;5095645;28;20442;-72
2022/06/09 14:03:15;;;;;;;61.17;2.70;;;;;;;;;;5096216;28;20796;-72
2022/06/09 14:05:45;;;;;;;60.00;2.40;;;;;;;;;;5095629;28;20449;-72
2022/06/09 14:08:13;;;;;;;62.63;2.37;;;;;;;;;;5094706;28;20450;-72
2022/06/09 14:10:40;;;;;;;59.53;2.33;;;;;;;;;;5095733;28;20452;-72
2022/06/09 14:13:08;;;;;;;58.93;2.63;;;;;;;;;;5095422;28;20486;-73
2022/06/09 14:15:36;;;;;;;57.80;2.03;;;;;;;;;;5095627;28;20446;-73
2022/06/09 14:18:03;;;;;;;57.80;2.10;;;;;;;;;;5094694;28;20807;-73
2022/06/09 14:20:32;;;;;;;59.80;2.50;;;;;;;;;;5095130;28;20454;-73
2022/06/09 14:23:01;;;;;;;60.67;4.03;;;;;;;;;;5095044;28;20462;-73
2022/06/09 14:25:30;;;;;;;58.60;2.60;;;;;;;;;;5095417;28;20449;-73
2022/06/09 14:27:58;;;;;;;58.67;2.60;;;;;;;;;;5094559;28;20882;-73
2022/06/09 14:30:26;;;;;;;58.10;2.30;;;;;;;;;;5095114;28;20545;-73
2022/06/09 14:32:54;;;;;;;58.10;2.30;;;;;;;;;;5094839;28;20893;-72
2022/06/09 14:35:22;;;;;;;59.27;2.37;;;;;;;;;;5094878;28;20451;-72
2022/06/09 14:37:50;;;;;;;58.47;2.57;;;;;;;;;;5094336;28;20833;-72
2022/06/09 14:40:23;;;;;;;60.20;2.63;;;;;;;;;;5095436;28;20446;-73
2022/06/09 14:42:50;;;;;;;59.50;3.13;;;;;;;;;;5094839;28;20986;-73
2022/06/09 14:45:17;;;;;;;58.80;3.20;;;;;;;;;;5094727;28;20545;-72
2022/06/09 14:47:44;;;;;;;58.47;2.40;;;;;;;;;;5094523;28;20538;-73
2022/06/09 14:50:12;;;;;;;59.03;2.80;;;;;;;;;;5094674;28;20483;-72
2022/06/09 14:52:39;;;;;;;58.93;3.03;;;;;;;;;;5094506;28;20478;-72
2022/06/09 14:55:09;;;;;;;58.83;2.60;;;;;;;;;;5094572;28;20453;-74
2022/06/09 14:57:37;;;;;;;59.30;3.60;;;;;;;;;;5093979;28;20457;-72
2022/06/09 15:00:05;;;;;;;60.23;3.17;;;;;;;;;;5094672;28;20534;-72
2022/06/09 15:02:32;;;;;;;58.37;2.67;;;;;;;;;;5094189;28;20552;-73
2022/06/09 15:05:00;;;;;;;59.90;3.10;;;;;;;;;;5094511;28;20446;-72
2022/06/09 15:07:27;;;;;;;58.80;2.80;;;;;;;;;;5094002;28;20459;-72
2022/06/09 15:09:54;;;;;;;58.70;2.70;;;;;;;;;;5094269;28;20967;-73
2022/06/09 15:12:21;;;;;;;58.30;2.60;;;;;;;;;;5094066;28;20462;-72